Time;durP1;ratioP1;P1;durP2;ratioP2;P2;SDS_P1;SDS_P2;PMS_P1;PMS_P2;Temp;Humidity;BMP_temperature;BMP_pressure;BME280_temperature;BME280_humidity;BME280_pressure;Samples;Min_cycle;Max_cycle;Signal;HPM_P1;HPM_P2
2022/06/24 06:20:32;;;;;;;5.97;2.50;;;;;;;21.61;69.13;97659.72;5039059;27;20432;-85
2022/06/24 06:22:57;;;;;;;4.45;2.20;;;;;;;21.72;68.63;97672.97;5036436;28;20068;-86
2022/06/24 06:25:23;;;;;;;6.65;2.40;;;;;;;21.60;68.73;97671.47;5046104;28;20060;-88
2022/06/24 06:27:50;;;;;;;4.80;2.55;;;;;;;21.59;70.08;97672.53;5047201;28;20112;-87
2022/06/24 06:30:16;;;;;;;2.67;2.40;;;;;;;21.52;69.75;97652.56;5045539;28;20033;-88
2022/06/24 06:32:42;;;;;;;7.80;2.63;;;;;;;21.53;69.58;97660.31;5045353;28;20220;-84
2022/06/24 06:35:08;;;;;;;6.50;2.70;;;;;;;21.54;69.97;97656.56;5046707;28;20132;-86
2022/06/24 06:37:34;;;;;;;5.28;2.50;;;;;;;21.59;69.33;97645.84;5045589;28;20029;-87
2022/06/24 06:40:03;;;;;;;6.07;2.72;;;;;;;21.64;68.39;97658.34;5032557;28;20050;-86
2022/06/24 06:42:28;;;;;;;3.50;2.53;;;;;;;21.73;67.70;97645.19;5055337;28;20094;-85
2022/06/24 06:44:55;;;;;;;11.55;4.60;;;;;;;21.87;67.69;97646.09;5068154;28;20068;-86
2022/06/24 06:47:20;;;;;;;8.15;3.78;;;;;;;21.89;67.46;97638.59;5067268;28;20035;-87
2022/06/24 06:49:46;;;;;;;16.55;6.57;;;;;;;21.94;67.69;97651.88;5062253;28;20025;-85
2022/06/24 06:52:11;;;;;;;18.48;6.38;;;;;;;21.99;67.41;97659.84;5066777;28;20032;-87
2022/06/24 13:15:39;;;;;;;0.00;0.00;;;;;;;28.11;47.11;97247.66;4990705;28;151067;-79
2022/06/24 13:30:47;;;;;;;29.00;3.90;;;;;;;28.28;45.81;97239.38;5039828;27;20451;-85
2022/06/24 13:36:49;;;;;;;5.85;0.60;;;;;;;27.48;48.93;97236.22;4984035;28;252748;-85
2022/06/24 13:39:14;;;;;;;6.18;2.80;;;;;;;27.41;47.00;97238.69;5013870;28;20064;-84
2022/06/24 13:41:40;;;;;;;6.63;2.88;;;;;;;27.15;47.33;97238.88;5036951;28;20030;-84
2022/06/24 13:53:56;;;;;;;6.30;2.92;;;;;;;24.36;56.66;97359.34;5037507;27;20932;-87
2022/06/24 13:56:21;;;;;;;5.00;3.10;;;;;;;24.35;57.75;97363.91;5042982;28;20061;-85
2022/06/24 13:58:48;;;;;;;5.38;3.17;;;;;;;23.82;59.02;97377.22;5044329;28;20041;-92
2022/06/24 14:01:14;;;;;;;5.38;2.97;;;;;;;23.40;61.25;97376.50;5027752;28;20048;-84
2022/06/24 14:04:48;;;;;;;7.18;3.28;;;;;;;22.98;62.75;97353.56;5049323;27;20405;-84
2022/06/24 14:24:56;;;;;;;8.27;3.67;;;;;;;22.13;66.60;97351.03;5013520;27;20873;-86
2022/06/24 14:29:41;;;;;;;6.43;3.70;;;;;;;21.93;68.03;97351.31;5041644;27;20408;-86
2022/06/24 14:32:07;;;;;;;6.22;3.47;;;;;;;21.87;67.70;97363.13;5003418;28;259927;-85
2022/06/24 14:34:49;;;;;;;6.60;3.75;;;;;;;21.82;67.46;97376.56;4981020;28;20398;-83
2022/06/24 14:40:25;;;;;;;8.15;3.92;;;;;;;21.68;68.62;97384.50;5045587;28;319528;-88
2022/06/24 14:42:51;;;;;;;6.70;3.60;;;;;;;21.65;69.32;97398.41;5023636;28;20511;-85
2022/06/24 14:59:24;;;;;;;0.00;0.00;;;;;;;27.48;50.75;97420.13;5017470;27;20512;-75
2022/06/24 15:01:49;;;;;;;0.10;0.10;;;;;;;27.33;50.81;97399.16;4992893;28;20497;-80
2022/06/24 15:04:15;;;;;;;5.85;1.45;;;;;;;27.35;50.84;97418.47;4996745;28;20037;-79
2022/06/24 15:06:43;;;;;;;0.57;0.25;;;;;;;26.75;54.61;97403.34;4992034;28;20112;-87
2022/06/24 15:09:09;;;;;;;0.38;0.38;;;;;;;24.77;61.12;97413.50;4987968;28;20073;-88
2022/06/24 15:11:55;;;;;;;0.00;0.00;;;;;;;24.13;63.78;97420.94;4992484;28;20049;-88
2022/06/24 15:14:21;;;;;;;0.00;0.00;;;;;;;22.87;68.85;97433.16;4967826;28;20121;-85
2022/06/24 15:16:47;;;;;;;0.00;0.00;;;;;;;22.02;71.89;97421.66;4981177;28;20408;-88
2022/06/24 15:19:14;;;;;;;0.00;0.00;;;;;;;21.37;74.34;97429.47;4994978;28;20026;-87
2022/06/24 15:21:41;;;;;;;0.00;0.00;;;;;;;20.72;76.58;97405.88;4970744;28;20086;-88
2022/06/24 15:24:06;;;;;;;0.10;0.00;;;;;;;20.47;78.13;97406.91;4987468;28;20038;-85
2022/06/24 15:26:32;;;;;;;0.00;0.00;;;;;;;19.98;79.12;97404.34;4991344;28;20048;-87
2022/06/24 15:28:57;;;;;;;0.00;0.00;;;;;;;19.91;79.90;97431.25;5001215;28;20030;-88
2022/06/24 15:31:24;;;;;;;0.00;0.00;;;;;;;19.69;80.79;97418.34;4982208;28;20096;-88
2022/06/24 15:33:52;;;;;;;0.00;0.00;;;;;;;19.64;80.82;97393.63;4990469;28;20085;-85
2022/06/24 15:36:21;;;;;;;0.55;0.43;;;;;;;19.82;81.28;97416.94;4990547;28;20517;-85
2022/06/24 15:38:46;;;;;;;0.00;0.00;;;;;;;19.66;81.68;97407.44;4984013;28;20101;-84
2022/06/24 15:41:12;;;;;;;0.00;0.00;;;;;;;19.87;84.34;97398.28;4996901;28;20091;-87
2022/06/24 15:43:39;;;;;;;0.00;0.00;;;;;;;19.81;81.88;97383.41;4995544;28;20061;-84
2022/06/24 15:46:09;;;;;;;0.00;0.00;;;;;;;19.70;82.06;97371.25;4984752;28;20085;-84
2022/06/24 15:48:37;;;;;;;0.00;0.00;;;;;;;19.65;82.02;97365.97;4985598;28;20043;-86
2022/06/24 15:51:05;;;;;;;0.00;0.00;;;;;;;19.76;82.22;97375.47;4988867;28;20027;-86
2022/06/24 15:53:32;;;;;;;0.00;0.00;;;;;;;19.62;82.38;97361.19;4971067;28;20129;-86
2022/06/24 15:55:57;;;;;;;0.00;0.00;;;;;;;19.58;82.55;97352.16;4968981;28;20114;-85
2022/06/24 15:58:23;;;;;;;0.00;0.00;;;;;;;19.59;82.55;97369.72;4982069;28;20562;-86
2022/06/24 16:00:50;;;;;;;0.00;0.00;;;;;;;19.51;82.50;97369.19;5001720;28;20073;-84
2022/06/24 16:03:16;;;;;;;0.00;0.00;;;;;;;19.59;82.42;97381.16;4994549;28;20378;-85
2022/06/24 16:05:42;;;;;;;0.00;0.00;;;;;;;19.46;82.91;97373.75;4989855;28;20034;-84
2022/06/24 16:08:07;;;;;;;0.00;0.00;;;;;;;19.58;83.03;97390.22;4997740;28;20037;-85
2022/06/24 16:10:33;;;;;;;0.00;0.00;;;;;;;19.53;82.21;97385.66;4972171;28;20053;-85
2022/06/24 16:12:58;;;;;;;0.00;0.00;;;;;;;19.52;81.51;97397.38;4975097;28;20061;-85
2022/06/24 16:15:24;;;;;;;0.00;0.00;;;;;;;19.45;83.11;97380.16;4964923;28;279098;-83
2022/06/24 16:17:49;;;;;;;0.00;0.00;;;;;;;19.52;83.20;97385.94;4983826;28;20042;-85
2022/06/24 16:20:15;;;;;;;0.00;0.00;;;;;;;19.62;82.81;97396.56;4989409;28;20050;-85
2022/06/24 16:22:43;;;;;;;0.00;0.00;;;;;;;19.65;83.05;97389.91;4993884;28;20122;-85
2022/06/24 16:30:41;;;;;;;0.00;0.00;;;;;;;19.74;82.85;97389.06;4978394;28;20064;-83
2022/06/24 16:33:07;;;;;;;0.00;0.00;;;;;;;19.73;82.55;97366.19;4993041;28;20038;-84
2022/06/24 16:35:34;;;;;;;0.00;0.00;;;;;;;19.76;82.59;97368.28;4991694;28;20181;-85
2022/06/24 16:38:02;;;;;;;0.00;0.00;;;;;;;19.74;81.92;97340.38;4994381;28;20038;-84
2022/06/24 16:40:27;;;;;;;0.10;0.10;;;;;;;19.65;82.50;97316.22;4972865;28;20097;-85
2022/06/24 16:45:37;;;;;;;1.85;0.15;;;;;;;-143.04;100.00;61139.28;5007560;28;20040;-84
2022/06/24 16:48:03;;;;;;;7.57;2.20;;;;;;;22.30;68.55;97328.28;4990267;28;20408;-75
2022/06/24 16:50:28;;;;;;;14.47;2.70;;;;;;;26.27;57.78;97334.47;4999612;28;20437;-87
2022/06/24 16:52:54;;;;;;;1.10;1.00;;;;;;;25.69;60.27;97325.03;4993723;28;20030;-88
2022/06/24 16:55:20;;;;;;;2.03;1.05;;;;;;;24.37;64.62;97329.56;4993359;28;20038;-91
2022/06/24 16:57:49;;;;;;;1.25;1.10;;;;;;;23.06;68.57;97326.88;4962800;28;20058;-89
2022/06/24 17:00:17;;;;;;;0.93;0.90;;;;;;;21.98;72.88;97307.72;4997088;28;20038;-89
2022/06/24 17:02:43;;;;;;;1.17;0.82;;;;;;;21.75;75.39;97322.75;4976887;28;20036;-89
2022/06/24 17:05:10;;;;;;;1.45;0.80;;;;;;;21.55;76.58;97319.31;4987070;28;20477;-89
2022/06/24 17:07:36;;;;;;;1.75;0.70;;;;;;;21.35;77.71;97323.06;4989481;28;20058;-89
2022/06/24 17:10:04;;;;;;;0.80;0.80;;;;;;;21.08;78.22;97309.53;4969622;28;20038;-90
2022/06/24 17:12:38;;;;;;;1.30;1.17;;;;;;;20.98;78.86;97321.09;4993197;28;20038;-89
2022/06/24 17:15:05;;;;;;;1.02;0.93;;;;;;;20.90;80.02;97319.06;4977609;28;20379;-89
2022/06/24 17:17:32;;;;;;;1.55;1.10;;;;;;;20.79;81.10;97330.91;4995874;28;20402;-90
2022/06/24 17:19:57;;;;;;;1.33;1.13;;;;;;;20.61;80.86;97313.00;5008458;28;20054;-90
2022/06/24 17:22:23;;;;;;;1.75;1.23;;;;;;;20.61;81.11;97331.66;5003120;28;20034;-89
2022/06/24 17:24:49;;;;;;;2.33;1.60;;;;;;;20.52;81.90;97320.84;4946285;28;20066;-89
2022/06/24 17:27:16;;;;;;;1.35;1.25;;;;;;;20.41;81.86;97311.31;4975784;28;20037;-90
2022/06/24 17:29:42;;;;;;;1.92;1.42;;;;;;;20.51;82.35;97332.53;4974933;28;20094;-91
2022/06/24 17:32:09;;;;;;;2.10;1.45;;;;;;;20.39;83.09;97326.78;4991183;28;20031;-89
2022/06/24 17:34:34;;;;;;;1.75;1.65;;;;;;;20.34;82.68;97327.63;4992701;28;20065;-91
2022/06/24 17:37:00;;;;;;;1.55;1.30;;;;;;;20.30;83.17;97326.59;5005948;28;20076;-91
2022/06/24 17:39:27;;;;;;;1.40;1.27;;;;;;;20.47;82.44;97331.53;4992720;28;20031;-89
2022/06/24 17:41:53;;;;;;;1.92;1.70;;;;;;;20.37;81.61;97327.06;4990598;28;20034;-90
2022/06/24 17:44:20;;;;;;;2.05;1.83;;;;;;;20.34;79.26;97338.28;5000374;28;20042;-90
2022/06/24 17:46:47;;;;;;;2.13;1.60;;;;;;;20.30;79.06;97338.03;4998261;28;20382;-91
2022/06/24 17:49:12;;;;;;;1.67;1.30;;;;;;;20.35;80.48;97352.41;4992772;28;20038;-93
2022/06/24 17:51:38;;;;;;;2.28;1.55;;;;;;;20.24;79.04;97351.69;4991691;28;20056;-90
2022/06/24 17:54:04;;;;;;;0.90;0.90;;;;;;;20.26;81.49;97342.34;4978744;28;20434;-88
2022/06/24 17:56:30;;;;;;;2.42;1.30;;;;;;;20.25;81.12;97347.94;4992455;28;20085;-88
2022/06/24 17:58:56;;;;;;;1.77;1.40;;;;;;;20.21;79.96;97360.22;4992872;28;20053;-90
2022/06/24 18:01:22;;;;;;;2.58;1.65;;;;;;;20.06;77.37;97350.50;4975471;28;20062;-88
2022/06/24 18:03:48;;;;;;;2.10;0.98;;;;;;;20.07;80.88;97335.31;4994358;28;20038;-91
2022/06/24 18:06:13;;;;;;;1.38;1.00;;;;;;;20.20;80.76;97363.97;4976806;28;20506;-87
2022/06/24 18:08:48;;;;;;;1.02;0.80;;;;;;;20.19;82.07;97357.06;4992169;28;20038;-91
2022/06/24 18:11:16;;;;;;;1.02;0.90;;;;;;;20.16;81.49;97365.59;4997702;28;20381;-89
2022/06/24 22:09:49;;;;;;;2.47;1.95;;;;;;;16.53;93.55;97716.28;5070824;27;20435;-93
2022/06/24 22:12:15;;;;;;;2.13;1.92;;;;;;;16.58;93.06;97721.63;5005078;28;20058;-93
2022/06/24 22:14:40;;;;;;;3.85;2.47;;;;;;;16.63;92.50;97705.81;5009115;28;20031;-93
2022/06/24 22:17:07;;;;;;;2.10;1.90;;;;;;;16.68;91.92;97699.78;5007270;28;20074;-93
2022/06/24 22:19:33;;;;;;;1.70;1.60;;;;;;;16.78;91.41;97703.34;4994111;28;20027;-90
2022/06/24 22:22:01;;;;;;;1.67;1.58;;;;;;;16.83;90.66;97702.59;5009130;28;20070;-92
2022/06/24 22:24:29;;;;;;;1.70;1.60;;;;;;;16.77;89.64;97693.81;4997951;28;20486;-92
2022/06/24 22:32:01;;;;;;;1.70;1.60;;;;;;;16.84;88.91;97697.03;4992042;28;20530;-93
2022/06/24 22:34:49;;;;;;;1.95;1.80;;;;;;;16.88;89.30;97704.50;4980098;28;20074;-94
2022/06/24 22:37:17;;;;;;;1.60;1.50;;;;;;;16.98;88.69;97728.47;4964930;28;20119;-86
2022/06/24 22:39:52;;;;;;;1.98;1.80;;;;;;;16.95;88.83;97728.94;4989989;28;20042;-86
2022/06/24 22:42:23;;;;;;;1.60;1.45;;;;;;;16.89;89.21;97724.66;4996743;28;20023;-93
2022/06/24 22:44:49;;;;;;;2.17;1.60;;;;;;;16.86;88.83;97728.59;5005859;28;20044;-91
2022/06/24 22:47:14;;;;;;;2.75;1.80;;;;;;;16.78;89.18;97732.47;5026239;28;20038;-90
2022/06/24 22:49:40;;;;;;;1.50;1.40;;;;;;;16.85;88.94;97721.69;5003981;28;20045;-94
2022/06/24 22:52:08;;;;;;;1.50;1.40;;;;;;;16.91;87.17;97719.88;4997689;28;20038;-91
2022/06/24 22:54:34;;;;;;;2.10;1.90;;;;;;;16.83;86.21;97719.28;4990825;28;20030;-87
2022/06/24 22:56:59;;;;;;;1.70;1.60;;;;;;;16.91;86.88;97731.28;5013037;28;20041;-90
2022/06/24 22:59:25;;;;;;;1.40;1.30;;;;;;;17.00;88.44;97735.09;5015549;28;20364;-90
2022/06/24 23:01:51;;;;;;;1.50;1.33;;;;;;;16.93;87.63;97736.34;5009113;28;20055;-92
2022/06/24 23:04:16;;;;;;;1.55;1.30;;;;;;;16.88;87.29;97729.16;4992755;28;20038;-89
2022/06/24 23:06:42;;;;;;;2.22;1.35;;;;;;;16.91;88.02;97733.94;4987961;28;20041;-91
2022/06/24 23:09:10;;;;;;;1.60;1.40;;;;;;;16.80;87.66;97725.09;4986208;28;20042;-91
2022/06/24 23:11:43;;;;;;;1.50;1.40;;;;;;;16.80;88.28;97714.50;5003949;28;20048;-87
2022/06/24 23:14:09;;;;;;;1.60;1.50;;;;;;;16.79;88.41;97726.16;4992065;28;20038;-86
2022/06/24 23:16:34;;;;;;;1.42;1.33;;;;;;;16.89;88.00;97738.69;5007110;28;20039;-87
2022/06/24 23:19:00;;;;;;;1.98;1.20;;;;;;;17.02;89.30;97748.09;5011527;28;20026;-89
2022/06/24 23:21:25;;;;;;;1.40;1.15;;;;;;;16.93;88.84;97745.09;4980676;28;20538;-91
2022/06/24 23:23:51;;;;;;;1.08;1.08;;;;;;;16.91;89.59;97744.53;4994866;28;20069;-86
2022/06/24 23:26:16;;;;;;;1.60;1.50;;;;;;;16.97;89.15;97745.38;4985478;28;20030;-87
2022/06/24 23:28:44;;;;;;;1.45;1.35;;;;;;;16.98;89.58;97760.25;4977813;28;20043;-88
2022/06/24 23:31:10;;;;;;;1.50;1.23;;;;;;;17.06;88.75;97765.09;4998890;28;20033;-89
2022/06/24 23:33:36;;;;;;;1.60;1.50;;;;;;;16.92;88.90;97772.63;4976091;28;20082;-87
2022/06/24 23:36:04;;;;;;;1.40;1.30;;;;;;;16.93;89.06;97760.19;4990486;28;20039;-89
2022/06/24 23:38:29;;;;;;;1.58;1.20;;;;;;;16.98;88.63;97769.00;4977834;28;20052;-82
2022/06/24 23:40:55;;;;;;;1.98;1.60;;;;;;;16.93;87.86;97765.50;4993351;28;20376;-92
2022/06/24 23:43:24;;;;;;;1.65;1.55;;;;;;;16.99;88.72;97777.75;4993368;28;20058;-92
2022/06/24 23:45:51;;;;;;;1.75;1.65;;;;;;;16.92;88.28;97766.53;5009226;28;20039;-85
2022/06/24 23:53:48;;;;;;;1.50;1.40;;;;;;;16.81;89.31;97770.91;4983566;28;20061;-93
2022/06/24 23:56:14;;;;;;;1.60;1.50;;;;;;;16.76;87.49;97768.22;4994134;28;20034;-88
2022/06/24 23:58:42;;;;;;;2.13;1.80;;;;;;;16.80;87.94;97772.78;4961553;28;20077;-90
